Participated 1 time
in 1982
José Luis Rodriguez, Spain
Tour de France 2026 starts from Barcelona, Spain in

Stats and Facts from
Tour de France.

2026   2025   2024   2023  2022  2021  2020  2019   2018  2017   2016   2015  2014  2013   2012   2011  2010   2009   2008   2007   2006   2005   2004   2003   2002   2001   2000   1999   1998   1997  1996   1995   1994   1993   1992  1991   1990   1989   1988   1987   1986   1985   1984   1983  1982  1981   1980   1979  1978  1977   1976  1975  1974  1973   1972   1971   1970  1969   1968   1967   1966   1965  1964  1963   1962   1961   1960   1959   1958   1957  1956   1955   1954   1953   1952  1951  1950  1949   1948  1947  1939   1938   1937   1936   1935   1934   1933  1932   1931   1930  1929   1928   1927   1926  1925  1924  1923   1922   1921   1920   1919  1914   1913   1912   1911   1910  1909   1908   1907   1906  1905  1904   1903 

Tourstats
Sitemap

After stage 21 - 2025:
 16451 starters.
  5463 different riders.
  689 teams.
  2398 stages.
  470 restdays.
  466506.50 km.
  5925 abandoned riders.

Click map for 2016 route.
Facts from Tour de France 2016
  |   Stages.  |   Stage winners.  |   Days in jerseys.  |   Teams.  |   All riders.  |   All riders by age.  |   All riders from.  |  

  |   Rookies.  |   Withdrawls.  |   Average speed.  |   GC.  |   Polka  |   Green  |   White  |   Summits. (In tour)  |   Miscellaneous.  |  

Stage 15 on July 17th. 2016
Pick a stage:  1  2  3  4  5  6  7  8  9  10  11  12  13  14  15  16  17  18  19  20  21  

After stage 15:    Chris Froome    Rafał Majka    Peter Sagan    Adam Yates  
  Bourg-en-BresseCuloz | Dist: 159.00km. | Winner: Jarlinson Pantano

Podium
1  Col du Berthiand Rafał Majkaafter23.00 km.

2  Col du Sappel Thomas  Voecklerafter52.00 km.

3  Col de Pisseloup Serge Pauwelsafter63.50 km.

3  Côte de Rochette Serge Pauwelsafter79.00 km.

HC  Col du Grand Colombier Rafał Majkaafter113.00 km.

1  Lacets du Grand Colombier Rafał Majkaafter146.00 km.


Average speed for all riders in stage:  33,562 km./hr.

1
 Jarlinson Pantano  IAM Cycling04h 24' 49"=36,025  km/h

2
 Rafał Majka  Tinkoff04h 24' 49"=36,025  km/h

3
 Alexis Vuillermoz  AG2R La Mondiale04h 24' 55"+  00:00:06 =36,011  km/h

4  Sébastien Reichenbach  FDJ04h 24' 55"+  00:00:06 =36,011  km/h

5  Julian Alaphilippe  Etixx-Quick Step04h 25' 11"+  00:00:22 =35,975  km/h

6  Serge Pauwels  Dimension Data04h 25' 14"+  00:00:25 =35,968  km/h

7  Pierre Rolland  Cannondale Pro Cycling04h 25' 14"+  00:00:25 =35,968  km/h

8  Ilnur Zakarin  Katusha04h 26' 19"+  00:01:30 =35,822  km/h

9  Daniel Navarro  Cofidis – Solutions Crédits04h 26' 19"+  00:01:30 =35,822  km/h

10  Tom-Jelte Slagter  Cannondale Pro Cycling04h 26' 57"+  00:02:08 =35,737  km/h

11  Kristijan Ðurasek  Lampre-Merida04h 26' 57"+  00:02:08 =35,737  km/h

12  Bartosz Huzarski  Bora-Argon 1804h 26' 59"+  00:02:10 =35,733  km/h

13  Wout Poels  Sky Procycling04h 27' 56"+  00:03:07 =35,606  km/h

14  Chris Froome  Sky Procycling04h 27' 56"+  00:03:07 =35,606  km/h

15  Nairo Quintana  Movistar04h 27' 56"+  00:03:07 =35,606  km/h

16  Alejandro Valverde  Movistar04h 27' 56"+  00:03:07 =35,606  km/h

17  Romain Bardet  AG2R La Mondiale04h 27' 56"+  00:03:07 =35,606  km/h

18  Richie Porte  BMC04h 27' 56"+  00:03:07 =35,606  km/h

19  Roman Kreuziger  Tinkoff04h 27' 56"+  00:03:07 =35,606  km/h

20  Louis Meintjes  Lampre-Merida04h 27' 56"+  00:03:07 =35,606  km/h

21  Adam Yates  ORICA BikeExchange04h 27' 56"+  00:03:07 =35,606  km/h

22  Bauke Mollema  Trek-Segafredo04h 27' 56"+  00:03:07 =35,606  km/h

23  Fabio Aru  Astana Pro Team04h 27' 56"+  00:03:07 =35,606  km/h

24  Dan Martin  Etixx-Quick Step04h 27' 56"+  00:03:07 =35,606  km/h

25  Joaquin Rodriguez  Katusha04h 27' 56"+  00:03:07 =35,606  km/h

26  Steve Morabito  FDJ04h 27' 56"+  00:03:07 =35,606  km/h

27  Haimar  Zubeldía  Trek-Segafredo04h 27' 56"+  00:03:07 =35,606  km/h

28  Nelson Oliveira  Movistar04h 27' 56"+  00:03:07 =35,606  km/h

33  Geraint Thomas  Sky Procycling04h 27' 56"+  00:03:07 =35,606  km/h

34  Sergio Henao  Sky Procycling04h 27' 56"+  00:03:07 =35,606  km/h

35  Diego Rosa  Astana Pro Team04h 27' 56"+  00:03:07 =35,606  km/h

36  Jan Polanc  Lampre-Merida04h 27' 56"+  00:03:07 =35,606  km/h

37  Thomas  Voeckler  Direct Energie04h 27' 56"+  00:03:07 =35,606  km/h

29  Stef Clement  IAM Cycling04h 29' 24"+  00:04:35 =35,412  km/h

30  Tejay Van Garderen  BMC04h 29' 24"+  00:04:35 =35,412  km/h

31  Mikel Nieve  Sky Procycling04h 29' 24"+  00:04:35 =35,412  km/h

32  Domenico Pozzovivo  AG2R La Mondiale04h 29' 24"+  00:04:35 =35,412  km/h

38  Romain Sicard  Direct Energie04h 36' 49"+  00:12:00 =34,463  km/h

39  Emanuel Buchmann  Bora-Argon 1804h 36' 53"+  00:12:04 =34,455  km/h

40  George Bennett  Lotto NL-Jumbo04h 36' 53"+  00:12:04 =34,455  km/h

41  Rubén Plaza  ORICA BikeExchange04h 36' 53"+  00:12:04 =34,455  km/h

42  Tanel Kangert  Astana Pro Team04h 36' 53"+  00:12:04 =34,455  km/h

43  Jan Bakelants  AG2R La Mondiale04h 36' 53"+  00:12:04 =34,455  km/h

44  Warren Barguil  Giant-Alpecin04h 38' 38"+  00:13:49 =34,239  km/h

45  Peter Stetina  Trek-Segafredo04h 38' 38"+  00:13:49 =34,239  km/h

46  Amaël Moinard  BMC04h 38' 38"+  00:13:49 =34,239  km/h

47  Daniel Moreno  Movistar04h 38' 38"+  00:13:49 =34,239  km/h

48  Luis León Sánchez  Astana Pro Team04h 38' 38"+  00:13:49 =34,239  km/h

49  Mikaël Cherel  AG2R La Mondiale04h 38' 38"+  00:13:49 =34,239  km/h

50  Jakob Fuglsang  Astana Pro Team04h 38' 38"+  00:13:49 =34,239  km/h

51  Vincenzo Nibali  Astana Pro Team04h 38' 38"+  00:13:49 =34,239  km/h

52  Gorka Izagirre  Movistar04h 38' 38"+  00:13:49 =34,239  km/h

53  Arthur Vichot  FDJ04h 39' 15"+  00:14:26 =34,163  km/h

54  Brice Feillu  Fortuneo-Vital Concept04h 39' 15"+  00:14:26 =34,163  km/h

55  Anthony Roux  FDJ04h 39' 15"+  00:14:26 =34,163  km/h

56  Robert Kišerlovski  Tinkoff04h 39' 15"+  00:14:26 =34,163  km/h

61  Jérôme Coppel  IAM Cycling04h 39' 15"+  00:14:26 =34,163  km/h

62  Ion Izagirre  Movistar04h 39' 15"+  00:14:26 =34,163  km/h

63  Alberto Losada  Katusha04h 39' 15"+  00:14:26 =34,163  km/h

57  Fabrice Jeandesboz  Direct Energie04h 41' 00"+  00:16:11 =33,950  km/h

58  Michael Schär  BMC04h 41' 30"+  00:16:41 =33,890  km/h

59  Simon Geschke  Giant-Alpecin04h 41' 30"+  00:16:41 =33,890  km/h

60  Tom Dumoulin  Giant-Alpecin04h 41' 30"+  00:16:41 =33,890  km/h

64  Ben Gastauer  AG2R La Mondiale04h 43' 03"+  00:18:14 =33,704  km/h

65  Geoffrey Soupe  Cofidis – Solutions Crédits04h 43' 51"+  00:19:02 =33,609  km/h

66  Arnold Jeannesson  Cofidis – Solutions Crédits04h 43' 51"+  00:19:02 =33,609  km/h

67  Dylan Van Baarle  Cannondale Pro Cycling04h 43' 51"+  00:19:02 =33,609  km/h

68  Fränk Schleck  Trek-Segafredo04h 43' 51"+  00:19:02 =33,609  km/h

69  Sylvain Chavanel  Direct Energie04h 43' 51"+  00:19:02 =33,609  km/h

70  Bert-Jan Lindeman  Lotto NL-Jumbo04h 45' 52"+  00:21:03 =33,372  km/h

71  Wilco Kelderman  Lotto NL-Jumbo04h 45' 52"+  00:21:03 =33,372  km/h

72  Jan Bárta  Bora-Argon 1804h 45' 52"+  00:21:03 =33,372  km/h

73  Greg Van Avermaet  BMC04h 46' 42"+  00:21:53 =33,275  km/h

74  Oliver Naesen  IAM Cycling04h 46' 42"+  00:21:53 =33,275  km/h

75  Marcus Burghardt  BMC04h 46' 42"+  00:21:53 =33,275  km/h

76  Damiano Caruso  BMC04h 46' 42"+  00:21:53 =33,275  km/h

77  Georg Preidler  Giant-Alpecin04h 46' 42"+  00:21:53 =33,275  km/h

78  Martin Elmiger  IAM Cycling04h 46' 42"+  00:21:53 =33,275  km/h

79  Jürgen Roelandts  Lotto Soudal04h 46' 42"+  00:21:53 =33,275  km/h

80  Daniel Teklehaimanot  Dimension Data04h 46' 42"+  00:21:53 =33,275  km/h

81  Florian Vachon  Fortuneo-Vital Concept04h 46' 42"+  00:21:53 =33,275  km/h

82  Tsgabu Grmay  Lampre-Merida04h 46' 42"+  00:21:53 =33,275  km/h

83  Brent Bookwalter  BMC04h 46' 42"+  00:21:53 =33,275  km/h

84  Patrick Konrad  Bora-Argon 1804h 46' 42"+  00:21:53 =33,275  km/h

85  Paolo Tiralongo  Astana Pro Team04h 46' 42"+  00:21:53 =33,275  km/h

86  Daryl Impey  ORICA BikeExchange04h 46' 42"+  00:21:53 =33,275  km/h

87  Andriy Grivko  Astana Pro Team04h 46' 42"+  00:21:53 =33,275  km/h

88  Michael Valgren  Tinkoff04h 46' 42"+  00:21:53 =33,275  km/h

89  Laurens Ten Dam  Giant-Alpecin04h 46' 42"+  00:21:53 =33,275  km/h

90  Pierre-Luc Périchon  Fortuneo-Vital Concept04h 46' 42"+  00:21:53 =33,275  km/h

91  Jérémy Roy  FDJ04h 46' 42"+  00:21:53 =33,275  km/h

92  Alexey Lutsenko  Astana Pro Team04h 46' 42"+  00:21:53 =33,275  km/h

93  Winner Anacona  Movistar04h 46' 42"+  00:21:53 =33,275  km/h

94  Rohan Dennis  BMC04h 46' 42"+  00:21:53 =33,275  km/h

95  Mikel Landa  Sky Procycling04h 46' 42"+  00:21:53 =33,275  km/h

96  Imanol Erviti  Movistar04h 46' 42"+  00:21:53 =33,275  km/h

97  Vasil Kiryienka  Sky Procycling04h 46' 42"+  00:21:53 =33,275  km/h

98  Cyril Lemoine  Cofidis – Solutions Crédits04h 46' 42"+  00:21:53 =33,275  km/h

99  Jérôme Cousin  Cofidis – Solutions Crédits04h 46' 42"+  00:21:53 =33,275  km/h

100  Christopher Juul Jensen  ORICA BikeExchange04h 46' 42"+  00:21:53 =33,275  km/h

101  Thomas De Gendt  Lotto Soudal04h 47' 29"+  00:22:40 =33,185  km/h

102  Yukiya  Arashiro  Lampre-Merida04h 47' 29"+  00:22:40 =33,185  km/h

103  Paul Martens  Lotto NL-Jumbo04h 47' 29"+  00:22:40 =33,185  km/h

104  Adam Hansen  Lotto Soudal04h 47' 29"+  00:22:40 =33,185  km/h

105  Luis Angel Mate  Cofidis – Solutions Crédits04h 47' 29"+  00:22:40 =33,185  km/h

106  Maarten Wynants  Lotto NL-Jumbo04h 49' 24"+  00:24:35 =32,965  km/h

107  Nicolas Edet  Cofidis – Solutions Crédits04h 50' 18"+  00:25:29 =32,863  km/h

108  Reto Hollenstein  IAM Cycling04h 51' 21"+  00:26:32 =32,744  km/h

109  Tony Gallopin  Lotto Soudal04h 51' 21"+  00:26:32 =32,744  km/h

110  Markel Irizar  Trek-Segafredo04h 51' 21"+  00:26:32 =32,744  km/h

111  Petr Vakoč  Etixx-Quick Step04h 51' 21"+  00:26:32 =32,744  km/h

112  Rui Costa  Lampre-Merida04h 51' 21"+  00:26:32 =32,744  km/h

113  Roy Curvers  Giant-Alpecin04h 51' 21"+  00:26:32 =32,744  km/h

114  William  Bonnet  FDJ04h 51' 21"+  00:26:32 =32,744  km/h

115  Julien Vermote  Etixx-Quick Step04h 51' 21"+  00:26:32 =32,744  km/h

116  Christophe Laporte  Cofidis – Solutions Crédits04h 51' 21"+  00:26:32 =32,744  km/h

117  Albert Timmer  Giant-Alpecin04h 51' 21"+  00:26:32 =32,744  km/h

118  Antoine Duchesne  Direct Energie04h 51' 21"+  00:26:32 =32,744  km/h

119  Lawson Craddock  Cannondale Pro Cycling04h 51' 21"+  00:26:32 =32,744  km/h

120  Anthony Delaplace  Fortuneo-Vital Concept04h 51' 21"+  00:26:32 =32,744  km/h

121  Armindo Fonseca  Fortuneo-Vital Concept04h 51' 21"+  00:26:32 =32,744  km/h

122  Chris Anker Sørensen  Fortuneo-Vital Concept04h 51' 21"+  00:26:32 =32,744  km/h

123  Eduardo Sepulveda  Fortuneo-Vital Concept04h 51' 21"+  00:26:32 =32,744  km/h

124  Matteo Bono  Lampre-Merida04h 51' 21"+  00:26:32 =32,744  km/h

125  Cyril Gautier  AG2R La Mondiale04h 51' 21"+  00:26:32 =32,744  km/h

126  Robert Wagner  Lotto NL-Jumbo04h 51' 21"+  00:26:32 =32,744  km/h

127  Marco Haller  Katusha04h 51' 21"+  00:26:32 =32,744  km/h

128  Ángel Vicioso  Katusha04h 51' 21"+  00:26:32 =32,744  km/h

129  Leigh Howard  IAM Cycling04h 51' 21"+  00:26:32 =32,744  km/h

130  Michael Matthews  ORICA BikeExchange04h 52' 56"+  00:28:07 =32,567  km/h

131  Gregory Rast  Trek-Segafredo04h 52' 56"+  00:28:07 =32,567  km/h

132  Ramon Sinkeldam  Giant-Alpecin04h 52' 56"+  00:28:07 =32,567  km/h

133  Maciej Bodnar  Tinkoff04h 52' 56"+  00:28:07 =32,567  km/h

134  Edvald Boasson Hagen  Dimension Data04h 52' 56"+  00:28:07 =32,567  km/h

135  Luke Rowe  Sky Procycling04h 52' 56"+  00:28:07 =32,567  km/h

136  Ian Stannard  Sky Procycling04h 52' 56"+  00:28:07 =32,567  km/h

137  Luke Durbridge  ORICA BikeExchange04h 52' 56"+  00:28:07 =32,567  km/h

138  Luka Pibernik  Lampre-Merida04h 52' 56"+  00:28:07 =32,567  km/h

139  Mathew Hayman  ORICA BikeExchange04h 52' 56"+  00:28:07 =32,567  km/h

140  Kristjan Koren  Cannondale Pro Cycling04h 52' 56"+  00:28:07 =32,567  km/h

141  Reinardt Janse Van Rensburg  Dimension Data04h 52' 56"+  00:28:07 =32,567  km/h

142  Timo Roosen  Lotto NL-Jumbo04h 52' 56"+  00:28:07 =32,567  km/h

143  Tony Martin  Etixx-Quick Step04h 52' 56"+  00:28:07 =32,567  km/h

144  Matteo Tosatto  Tinkoff04h 52' 56"+  00:28:07 =32,567  km/h

145  Oscar Gatto  Tinkoff04h 52' 56"+  00:28:07 =32,567  km/h

146  Natnael Berhane  Dimension Data04h 52' 56"+  00:28:07 =32,567  km/h

147  Paul Voss  Bora-Argon 1804h 52' 56"+  00:28:07 =32,567  km/h

148  Jasper Stuyven  Trek-Segafredo04h 52' 56"+  00:28:07 =32,567  km/h

149  Yohann Gène  Direct Energie04h 52' 56"+  00:28:07 =32,567  km/h

150  Bryan Coquard  Direct Energie04h 52' 56"+  00:28:07 =32,567  km/h

151  Fabian Cancellara  Trek-Segafredo04h 52' 56"+  00:28:07 =32,567  km/h

152  Peter Sagan  Tinkoff04h 53' 02"+  00:28:13 =32,556  km/h

153  Iljo Keisse  Etixx-Quick Step04h 53' 59"+  00:29:10 =32,451  km/h

154  Mark Cavendish  Dimension Data04h 53' 59"+  00:29:10 =32,451  km/h

155  Fabio Sabatini  Etixx-Quick Step04h 53' 59"+  00:29:10 =32,451  km/h

156  Marcel Sieberg  Lotto Soudal04h 53' 59"+  00:29:10 =32,451  km/h

157  Michael Albasini  ORICA BikeExchange04h 53' 59"+  00:29:10 =32,451  km/h

158  Jacopo Guarnieri  Katusha04h 53' 59"+  00:29:10 =32,451  km/h

159  Dylan Groenewegen  Lotto NL-Jumbo04h 53' 59"+  00:29:10 =32,451  km/h

160  Adrien Petit  Direct Energie04h 53' 59"+  00:29:10 =32,451  km/h

161  Cesare Benedetti  Bora-Argon 1804h 53' 59"+  00:29:10 =32,451  km/h

162  Lars Bak  Lotto Soudal04h 53' 59"+  00:29:10 =32,451  km/h

163  André Greipel  Lotto Soudal04h 53' 59"+  00:29:10 =32,451  km/h

164  Stephen Cummings  Dimension Data04h 53' 59"+  00:29:10 =32,451  km/h

165  Vegard Breen  Fortuneo-Vital Concept04h 53' 59"+  00:29:10 =32,451  km/h

166  Samuel Dumoulin  AG2R La Mondiale04h 53' 59"+  00:29:10 =32,451  km/h

167  Alex Howes  Cannondale Pro Cycling04h 53' 59"+  00:29:10 =32,451  km/h

168  Borut Božič  Cofidis – Solutions Crédits04h 53' 59"+  00:29:10 =32,451  km/h

169  Alexis Gougeard  AG2R La Mondiale04h 53' 59"+  00:29:10 =32,451  km/h

170  Maximiliano Richeze  Etixx-Quick Step04h 53' 59"+  00:29:10 =32,451  km/h

171  Andreas Schillinger  Bora-Argon 1804h 53' 59"+  00:29:10 =32,451  km/h

172  Alexander Kristoff  Katusha04h 53' 59"+  00:29:10 =32,451  km/h

173  Ramūnas Navardauskas  Cannondale Pro Cycling04h 53' 59"+  00:29:10 =32,451  km/h

174  Bernhard Eisel  Dimension Data04h 53' 59"+  00:29:10 =32,451  km/h

175  Davide Cimolai  Lampre-Merida04h 53' 59"+  00:29:10 =32,451  km/h

176  Gregory Henderson  Lotto Soudal04h 53' 59"+  00:29:10 =32,451  km/h

177  Sam Bennett  Bora-Argon 1804h 53' 59"+  00:29:10 =32,451  km/h

178  Shane Archbold  Bora-Argon 1804h 53' 59"+  00:29:10 =32,451  km/h

179  Sep Vanmarcke  Lotto NL-Jumbo04h 53' 59"+  00:29:10 =32,451  km/h

180  Sondre Holst Enger  IAM Cycling04h 53' 59"+  00:29:10 =32,451  km/h

181  John Degenkolb  Giant-Alpecin04h 53' 59"+  00:29:10 =32,451  km/h

182  Marcel Kittel  Etixx-Quick Step04h 53' 59"+  00:29:10 =32,451  km/h

183  Daniel McLay  Fortuneo-Vital Concept04h 56' 34"+  00:31:45 =32,168  km/h


Withdrawls: 2
 RiderTeamReason
164   Jens Debusschere Lotto SoudalDid not start
15   Jesus Herrada MovistarDid not finish
Todays birthdays.

1888 • Giuseppe Contesini
1911 • Edmond Pages
1935 • Eddy Pauwels
1940 • Julien Haelterman
1958 • Luc Colijn
1962 • Jean-François Bernard
1984 • Yann Huguet
1993 • Owain Doull

 

Optimized for Chrome - Edge
and Opera browsers.